sensor_id;sensor_type;location;lat;lon;timestamp;pressure;altitude;pressure_sealevel;temperature;humidity
32109;BME280;18624;50.042;8.436;2022-11-12T00:01:32;102202.69;;;7.10;100.00
32109;BME280;18624;50.042;8.436;2022-11-12T00:04:17;102202.66;;;7.07;100.00
32109;BME280;18624;50.042;8.436;2022-11-12T00:07:02;102198.25;;;7.02;100.00
32109;BME280;18624;50.042;8.436;2022-11-12T00:09:47;102204.22;;;7.08;100.00
32109;BME280;18624;50.042;8.436;2022-11-12T00:12:32;102216.72;;;7.09;100.00
32109;BME280;18624;50.042;8.436;2022-11-12T00:15:17;102221.78;;;7.10;100.00
32109;BME280;18624;50.042;8.436;2022-11-12T00:18:02;102218.28;;;7.10;100.00
32109;BME280;18624;50.042;8.436;2022-11-12T00:20:48;102213.28;;;7.12;100.00
32109;BME280;18624;50.042;8.436;2022-11-12T00:23:33;102218.28;;;7.10;100.00
32109;BME280;18624;50.042;8.436;2022-11-12T00:26:18;102217.88;;;7.08;100.00
32109;BME280;18624;50.042;8.436;2022-11-12T00:29:03;102220.59;;;7.08;100.00
32109;BME280;18624;50.042;8.436;2022-11-12T00:31:48;102213.13;;;7.05;100.00
32109;BME280;18624;50.042;8.436;2022-11-12T00:34:33;102212.75;;;7.06;100.00
32109;BME280;18624;50.042;8.436;2022-11-12T00:37:19;102220.06;;;7.02;100.00
32109;BME280;18624;50.042;8.436;2022-11-12T00:40:05;102213.41;;;7.00;100.00
32109;BME280;18624;50.042;8.436;2022-11-12T00:42:51;102170.00;;;6.72;100.00
32109;BME280;18624;50.042;8.436;2022-11-12T00:45:36;102204.78;;;6.98;100.00
32109;BME280;18624;50.042;8.436;2022-11-12T00:48:21;102219.66;;;7.00;100.00
32109;BME280;18624;50.042;8.436;2022-11-12T00:51:06;102217.00;;;7.04;100.00
32109;BME280;18624;50.042;8.436;2022-11-12T00:53:52;102219.28;;;7.02;100.00
32109;BME280;18624;50.042;8.436;2022-11-12T00:56:37;102150.69;;;6.61;100.00
32109;BME280;18624;50.042;8.436;2022-11-12T00:59:21;102086.88;;;6.23;100.00
32109;BME280;18624;50.042;8.436;2022-11-12T01:02:07;102202.13;;;7.01;100.00
32109;BME280;18624;50.042;8.436;2022-11-12T01:04:51;102200.19;;;7.02;100.00
32109;BME280;18624;50.042;8.436;2022-11-12T01:07:36;102200.56;;;7.00;100.00
32109;BME280;18624;50.042;8.436;2022-11-12T01:10:22;102202.91;;;7.02;100.00
32109;BME280;18624;50.042;8.436;2022-11-12T01:13:07;102172.09;;;6.78;100.00
32109;BME280;18624;50.042;8.436;2022-11-12T01:15:51;102212.63;;;6.99;100.00
32109;BME280;18624;50.042;8.436;2022-11-12T01:18:37;102209.53;;;7.01;100.00
32109;BME280;18624;50.042;8.436;2022-11-12T01:21:23;102204.44;;;6.99;100.00
32109;BME280;18624;50.042;8.436;2022-11-12T01:24:09;102207.16;;;6.99;100.00
32109;BME280;18624;50.042;8.436;2022-11-12T01:26:55;102205.66;;;7.02;100.00
32109;BME280;18624;50.042;8.436;2022-11-12T01:29:40;102207.25;;;7.03;100.00
32109;BME280;18624;50.042;8.436;2022-11-12T01:32:24;102201.78;;;7.03;100.00
32109;BME280;18624;50.042;8.436;2022-11-12T01:35:11;102203.28;;;7.00;100.00
32109;BME280;18624;50.042;8.436;2022-11-12T01:37:56;102214.13;;;6.97;100.00
32109;BME280;18624;50.042;8.436;2022-11-12T01:40:41;102213.63;;;6.91;100.00
32109;BME280;18624;50.042;8.436;2022-11-12T01:43:26;102206.22;;;6.92;100.00
32109;BME280;18624;50.042;8.436;2022-11-12T01:46:23;102192.47;;;6.84;100.00
32109;BME280;18624;50.042;8.436;2022-11-12T01:49:24;102201.50;;;6.89;100.00
32109;BME280;18624;50.042;8.436;2022-11-12T01:52:35;102197.09;;;6.84;100.00
32109;BME280;18624;50.042;8.436;2022-11-12T01:55:23;102191.66;;;6.84;100.00
32109;BME280;18624;50.042;8.436;2022-11-12T01:58:13;102190.94;;;6.87;100.00
32109;BME280;18624;50.042;8.436;2022-11-12T02:01:00;102189.78;;;6.88;100.00
32109;BME280;18624;50.042;8.436;2022-11-12T02:03:46;102185.50;;;6.87;100.00
32109;BME280;18624;50.042;8.436;2022-11-12T02:06:31;102183.47;;;6.84;100.00
32109;BME280;18624;50.042;8.436;2022-11-12T02:09:18;102196.78;;;6.85;100.00
32109;BME280;18624;50.042;8.436;2022-11-12T02:12:03;102181.41;;;6.77;100.00
32109;BME280;18624;50.042;8.436;2022-11-12T02:14:49;102182.91;;;6.75;100.00
32109;BME280;18624;50.042;8.436;2022-11-12T02:17:34;102090.97;;;6.14;100.00
32109;BME280;18624;50.042;8.436;2022-11-12T02:20:19;102102.88;;;6.25;100.00
32109;BME280;18624;50.042;8.436;2022-11-12T02:23:06;102172.16;;;6.63;100.00
32109;BME280;18624;50.042;8.436;2022-11-12T02:25:51;102183.78;;;6.79;100.00
32109;BME280;18624;50.042;8.436;2022-11-12T02:28:36;102183.34;;;6.77;100.00
32109;BME280;18624;50.042;8.436;2022-11-12T02:31:21;102194.66;;;6.79;100.00
32109;BME280;18624;50.042;8.436;2022-11-12T02:34:06;102189.13;;;6.75;100.00
32109;BME280;18624;50.042;8.436;2022-11-12T02:36:51;102183.78;;;6.79;100.00
32109;BME280;18624;50.042;8.436;2022-11-12T02:39:37;102180.72;;;6.80;100.00
32109;BME280;18624;50.042;8.436;2022-11-12T02:42:22;102183.44;;;6.80;100.00
32109;BME280;18624;50.042;8.436;2022-11-12T02:45:07;102182.91;;;6.75;100.00
32109;BME280;18624;50.042;8.436;2022-11-12T02:47:52;102187.16;;;6.72;100.00
32109;BME280;18624;50.042;8.436;2022-11-12T02:50:37;102186.28;;;6.68;100.00
32109;BME280;18624;50.042;8.436;2022-11-12T02:53:22;102193.38;;;6.73;100.00
32109;BME280;18624;50.042;8.436;2022-11-12T02:56:08;102192.94;;;6.71;100.00
32109;BME280;18624;50.042;8.436;2022-11-12T02:58:53;102191.38;;;6.70;100.00
32109;BME280;18624;50.042;8.436;2022-11-12T03:01:37;102189.00;;;6.68;100.00
32109;BME280;18624;50.042;8.436;2022-11-12T03:04:23;102178.03;;;6.65;100.00
32109;BME280;18624;50.042;8.436;2022-11-12T03:07:08;102183.56;;;6.49;100.00
32109;BME280;18624;50.042;8.436;2022-11-12T03:09:53;102186.59;;;6.47;100.00
32109;BME280;18624;50.042;8.436;2022-11-12T03:12:38;102164.34;;;6.26;100.00
32109;BME280;18624;50.042;8.436;2022-11-12T03:15:23;102167.25;;;6.33;100.00
32109;BME280;18624;50.042;8.436;2022-11-12T03:18:08;102167.50;;;6.28;100.00
32109;BME280;18624;50.042;8.436;2022-11-12T03:20:53;102174.44;;;6.25;100.00
32109;BME280;18624;50.042;8.436;2022-11-12T03:23:38;102184.91;;;6.23;100.00
32109;BME280;18624;50.042;8.436;2022-11-12T03:26:22;102183.25;;;6.19;100.00
32109;BME280;18624;50.042;8.436;2022-11-12T03:29:07;102179.31;;;6.16;100.00
32109;BME280;18624;50.042;8.436;2022-11-12T03:31:52;102178.69;;;6.23;100.00
32109;BME280;18624;50.042;8.436;2022-11-12T03:34:37;102174.03;;;6.23;100.00
32109;BME280;18624;50.042;8.436;2022-11-12T03:37:23;102182.56;;;6.22;100.00
32109;BME280;18624;50.042;8.436;2022-11-12T03:40:08;102169.28;;;6.20;100.00
32109;BME280;18624;50.042;8.436;2022-11-12T03:42:53;102170.06;;;6.21;100.00
32109;BME280;18624;50.042;8.436;2022-11-12T03:45:38;102125.31;;;6.02;100.00
32109;BME280;18624;50.042;8.436;2022-11-12T03:48:25;102169.09;;;6.29;100.00
32109;BME280;18624;50.042;8.436;2022-11-12T03:51:10;102166.09;;;6.34;100.00
32109;BME280;18624;50.042;8.436;2022-11-12T03:54:00;102164.97;;;6.35;100.00
32109;BME280;18624;50.042;8.436;2022-11-12T03:56:44;102170.13;;;6.40;100.00
32109;BME280;18624;50.042;8.436;2022-11-12T03:59:29;102085.28;;;5.87;100.00
32109;BME280;18624;50.042;8.436;2022-11-12T04:02:14;102167.25;;;6.33;100.00
32109;BME280;18624;50.042;8.436;2022-11-12T04:04:59;102165.66;;;6.32;100.00
32109;BME280;18624;50.042;8.436;2022-11-12T04:08:04;102167.25;;;6.33;100.00
32109;BME280;18624;50.042;8.436;2022-11-12T04:11:12;102166.03;;;6.30;100.00
32109;BME280;18624;50.042;8.436;2022-11-12T04:13:57;102165.66;;;6.32;100.00
32109;BME280;18624;50.042;8.436;2022-11-12T04:16:42;102162.56;;;6.33;100.00
32109;BME280;18624;50.042;8.436;2022-11-12T04:19:47;102160.31;;;6.36;100.00
32109;BME280;18624;50.042;8.436;2022-11-12T04:22:51;102161.44;;;6.34;100.00
32109;BME280;18624;50.042;8.436;2022-11-12T04:25:35;102165.66;;;6.32;100.00
32109;BME280;18624;50.042;8.436;2022-11-12T04:28:39;102080.88;;;5.63;100.00
32109;BME280;18624;50.042;8.436;2022-11-12T04:31:44;102171.66;;;6.22;100.00
32109;BME280;18624;50.042;8.436;2022-11-12T04:34:30;102172.00;;;6.20;100.00
32109;BME280;18624;50.042;8.436;2022-11-12T04:37:15;102168.88;;;6.18;100.00
32109;BME280;18624;50.042;8.436;2022-11-12T04:40:07;102177.97;;;6.26;100.00
32109;BME280;18624;50.042;8.436;2022-11-12T04:43:15;102175.59;;;6.24;100.00
32109;BME280;18624;50.042;8.436;2022-11-12T04:46:19;102179.13;;;6.25;100.00
32109;BME280;18624;50.042;8.436;2022-11-12T04:49:04;102170.31;;;6.31;100.00
32109;BME280;18624;50.042;8.436;2022-11-12T04:51:49;102168.38;;;6.32;100.00
32109;BME280;18624;50.042;8.436;2022-11-12T04:54:50;102172.97;;;6.28;100.00
32109;BME280;18624;50.042;8.436;2022-11-12T04:57:36;102180.69;;;6.26;100.00
32109;BME280;18624;50.042;8.436;2022-11-12T05:00:22;102174.03;;;6.23;100.00
32109;BME280;18624;50.042;8.436;2022-11-12T05:03:07;102083.91;;;5.62;100.00
32109;BME280;18624;50.042;8.436;2022-11-12T05:05:59;102176.31;;;6.21;100.00
32109;BME280;18624;50.042;8.436;2022-11-12T05:08:44;102168.59;;;6.23;100.00
32109;BME280;18624;50.042;8.436;2022-11-12T05:11:29;102170.06;;;6.21;100.00
32109;BME280;18624;50.042;8.436;2022-11-12T05:14:14;102170.06;;;6.21;100.00
32109;BME280;18624;50.042;8.436;2022-11-12T05:17:00;102175.47;;;6.17;100.00
32109;BME280;18624;50.042;8.436;2022-11-12T05:19:45;102178.88;;;6.14;100.00
32109;BME280;18624;50.042;8.436;2022-11-12T05:22:30;102173.34;;;6.11;100.00
32109;BME280;18624;50.042;8.436;2022-11-12T05:25:30;102174.91;;;6.12;100.00
32109;BME280;18624;50.042;8.436;2022-11-12T05:28:14;102172.38;;;6.19;100.00
32109;BME280;18624;50.042;8.436;2022-11-12T05:30:59;102164.63;;;6.21;100.00
32109;BME280;18624;50.042;8.436;2022-11-12T05:33:44;102171.31;;;6.23;100.00
32109;BME280;18624;50.042;8.436;2022-11-12T05:36:29;102170.44;;;6.19;100.00
32109;BME280;18624;50.042;8.436;2022-11-12T05:39:14;102082.00;;;5.62;100.00
32109;BME280;18624;50.042;8.436;2022-11-12T05:42:00;102170.94;;;6.25;100.00
32109;BME280;18624;50.042;8.436;2022-11-12T05:45:00;102171.91;;;6.32;100.00
32109;BME280;18624;50.042;8.436;2022-11-12T05:47:46;102168.81;;;6.34;100.00
32109;BME280;18624;50.042;8.436;2022-11-12T05:50:31;102166.88;;;6.34;100.00
32109;BME280;18624;50.042;8.436;2022-11-12T05:53:29;102177.84;;;6.38;100.00
32109;BME280;18624;50.042;8.436;2022-11-12T05:56:14;102175.91;;;6.39;100.00
32109;BME280;18624;50.042;8.436;2022-11-12T05:59:00;102180.56;;;6.38;100.00
32109;BME280;18624;50.042;8.436;2022-11-12T06:01:45;102177.56;;;6.43;100.00
32109;BME280;18624;50.042;8.436;2022-11-12T06:04:31;102179.59;;;6.46;100.00
32109;BME280;18624;50.042;8.436;2022-11-12T06:07:16;102186.09;;;6.42;100.00
32109;BME280;18624;50.042;8.436;2022-11-12T06:10:01;102180.78;;;6.29;100.00
32109;BME280;18624;50.042;8.436;2022-11-12T06:12:46;102179.47;;;6.23;100.00
32109;BME280;18624;50.042;8.436;2022-11-12T06:15:32;102191.16;;;6.24;100.00
32109;BME280;18624;50.042;8.436;2022-11-12T06:18:23;102185.09;;;6.30;100.00
32109;BME280;18624;50.042;8.436;2022-11-12T06:21:10;102187.72;;;6.27;100.00
32109;BME280;18624;50.042;8.436;2022-11-12T06:24:08;102196.31;;;6.29;100.00
32109;BME280;18624;50.042;8.436;2022-11-12T06:26:53;102186.66;;;6.31;100.00
32109;BME280;18624;50.042;8.436;2022-11-12T06:29:38;102190.28;;;6.20;100.00
32109;BME280;18624;50.042;8.436;2022-11-12T06:32:24;102204.34;;;6.22;100.00
32109;BME280;18624;50.042;8.436;2022-11-12T06:35:09;102199.03;;;6.29;100.00
32109;BME280;18624;50.042;8.436;2022-11-12T06:37:54;102200.00;;;6.37;100.00
32109;BME280;18624;50.042;8.436;2022-11-12T06:40:40;102206.75;;;6.43;100.00
32109;BME280;18624;50.042;8.436;2022-11-12T06:43:27;102200.50;;;6.42;100.00
32109;BME280;18624;50.042;8.436;2022-11-12T06:46:14;102192.06;;;6.47;100.00
32109;BME280;18624;50.042;8.436;2022-11-12T06:49:00;102180.81;;;6.49;100.00
32109;BME280;18624;50.042;8.436;2022-11-12T06:51:45;102182.81;;;6.52;100.00
32109;BME280;18624;50.042;8.436;2022-11-12T06:54:30;102190.06;;;6.44;100.00
32109;BME280;18624;50.042;8.436;2022-11-12T06:57:15;102191.63;;;6.45;100.00
32109;BME280;18624;50.042;8.436;2022-11-12T07:00:00;102190.75;;;6.41;100.00
32109;BME280;18624;50.042;8.436;2022-11-12T07:02:46;102190.47;;;6.27;100.00
32109;BME280;18624;50.042;8.436;2022-11-12T07:05:34;102124.59;;;5.90;100.00
32109;BME280;18624;50.042;8.436;2022-11-12T07:08:19;102182.38;;;6.30;100.00
32109;BME280;18624;50.042;8.436;2022-11-12T07:11:05;102187.09;;;6.33;100.00
32109;BME280;18624;50.042;8.436;2022-11-12T07:13:50;102195.34;;;6.37;100.00
32109;BME280;18624;50.042;8.436;2022-11-12T07:16:35;102177.97;;;6.26;100.00
32109;BME280;18624;50.042;8.436;2022-11-12T07:19:19;102189.03;;;6.33;100.00
32109;BME280;18624;50.042;8.436;2022-11-12T07:22:05;102199.91;;;6.33;100.00
32109;BME280;18624;50.042;8.436;2022-11-12T07:24:50;102204.41;;;6.25;100.00
32109;BME280;18624;50.042;8.436;2022-11-12T07:27:35;102205.66;;;6.28;100.00
32109;BME280;18624;50.042;8.436;2022-11-12T07:30:20;102203.44;;;6.33;100.00
32109;BME280;18624;50.042;8.436;2022-11-12T07:33:06;102210.81;;;6.33;100.00
32109;BME280;18624;50.042;8.436;2022-11-12T07:38:51;102203.09;;;6.35;100.00
32109;BME280;18624;50.042;8.436;2022-11-12T07:41:36;102206.25;;;6.37;100.00
32109;BME280;18624;50.042;8.436;2022-11-12T07:44:21;102207.03;;;6.38;100.00
32109;BME280;18624;50.042;8.436;2022-11-12T07:47:06;102201.84;;;6.32;100.00
32109;BME280;18624;50.042;8.436;2022-11-12T07:49:52;102202.66;;;6.33;100.00
32109;BME280;18624;50.042;8.436;2022-11-12T07:52:37;102208.44;;;6.31;100.00
32109;BME280;18624;50.042;8.436;2022-11-12T07:55:22;102211.38;;;6.23;100.00
32109;BME280;18624;50.042;8.436;2022-11-12T07:58:07;102189.84;;;6.18;100.00
32109;BME280;18624;50.042;8.436;2022-11-12T08:00:52;102193.47;;;6.22;100.00
32109;BME280;18624;50.042;8.436;2022-11-12T08:03:38;102203.53;;;6.21;100.00
32109;BME280;18624;50.042;8.436;2022-11-12T08:06:23;102196.22;;;6.25;100.00
32109;BME280;18624;50.042;8.436;2022-11-12T08:09:08;102198.25;;;6.28;100.00
32109;BME280;18624;50.042;8.436;2022-11-12T08:11:54;102201.50;;;6.34;100.00
32109;BME280;18624;50.042;8.436;2022-11-12T08:14:39;102200.00;;;6.37;100.00
32109;BME280;18624;50.042;8.436;2022-11-12T08:17:24;102204.75;;;6.40;100.00
32109;BME280;18624;50.042;8.436;2022-11-12T08:20:09;102200.69;;;6.33;100.00
32109;BME280;18624;50.042;8.436;2022-11-12T08:22:58;102195.25;;;6.33;100.00
32109;BME280;18624;50.042;8.436;2022-11-12T08:25:43;102198.78;;;6.34;100.00
32109;BME280;18624;50.042;8.436;2022-11-12T08:28:29;102197.38;;;6.40;100.00
32109;BME280;18624;50.042;8.436;2022-11-12T08:31:18;102196.22;;;6.41;100.00
32109;BME280;18624;50.042;8.436;2022-11-12T08:34:04;102198.66;;;6.46;100.00
32109;BME280;18624;50.042;8.436;2022-11-12T08:36:56;102203.59;;;6.41;100.00
32109;BME280;18624;50.042;8.436;2022-11-12T08:39:41;102203.94;;;6.39;100.00
32109;BME280;18624;50.042;8.436;2022-11-12T08:42:28;102209.38;;;6.39;100.00
32109;BME280;18624;50.042;8.436;2022-11-12T08:45:13;102208.25;;;6.40;100.00
32109;BME280;18624;50.042;8.436;2022-11-12T08:48:09;102210.25;;;6.43;100.00
32109;BME280;18624;50.042;8.436;2022-11-12T08:50:54;102212.69;;;6.48;100.00
32109;BME280;18624;50.042;8.436;2022-11-12T08:53:40;102202.09;;;6.43;100.00
32109;BME280;18624;50.042;8.436;2022-11-12T08:56:25;102202.03;;;6.40;100.00
32109;BME280;18624;50.042;8.436;2022-11-12T08:59:10;102206.66;;;6.39;100.00
32109;BME280;18624;50.042;8.436;2022-11-12T09:01:56;102201.56;;;6.38;100.00
32109;BME280;18624;50.042;8.436;2022-11-12T09:04:40;102205.53;;;6.40;100.00
32109;BME280;18624;50.042;8.436;2022-11-12T09:07:25;102209.91;;;6.45;100.00
32109;BME280;18624;50.042;8.436;2022-11-12T09:10:31;102214.50;;;6.41;100.00
32109;BME280;18624;50.042;8.436;2022-11-12T09:13:17;102130.16;;;5.93;100.00
32109;BME280;18624;50.042;8.436;2022-11-12T09:16:04;102210.72;;;6.45;100.00
32109;BME280;18624;50.042;8.436;2022-11-12T09:18:49;102206.13;;;6.49;100.00
32109;BME280;18624;50.042;8.436;2022-11-12T09:21:35;102209.28;;;6.51;100.00
32109;BME280;18624;50.042;8.436;2022-11-12T09:24:20;102207.78;;;6.54;100.00
32109;BME280;18624;50.042;8.436;2022-11-12T09:27:05;102202.66;;;6.52;100.00
32109;BME280;18624;50.042;8.436;2022-11-12T09:29:50;102198.09;;;6.56;100.00
32109;BME280;18624;50.042;8.436;2022-11-12T09:32:35;102205.16;;;6.57;100.00
32109;BME280;18624;50.042;8.436;2022-11-12T09:35:20;102212.25;;;6.62;100.00
32109;BME280;18624;50.042;8.436;2022-11-12T09:38:06;102211.09;;;6.63;100.00
32109;BME280;18624;50.042;8.436;2022-11-12T09:43:39;102214.16;;;6.62;100.00
32109;BME280;18624;50.042;8.436;2022-11-12T09:49:43;102218.47;;;6.63;100.00
32109;BME280;18624;50.042;8.436;2022-11-12T09:52:32;102218.47;;;6.63;100.00
32109;BME280;18624;50.042;8.436;2022-11-12T09:55:47;102214.59;;;6.64;100.00
32109;BME280;18624;50.042;8.436;2022-11-12T09:58:33;102211.97;;;6.67;100.00
32109;BME280;18624;50.042;8.436;2022-11-12T10:01:23;102204.84;;;6.63;100.00
32109;BME280;18624;50.042;8.436;2022-11-12T10:04:27;102208.44;;;6.67;100.00
32109;BME280;18624;50.042;8.436;2022-11-12T10:10:16;102207.72;;;6.70;100.00
32109;BME280;18624;50.042;8.436;2022-11-12T10:13:13;102137.38;;;6.37;100.00
32109;BME280;18624;50.042;8.436;2022-11-12T10:16:24;102207.97;;;6.80;100.00
32109;BME280;18624;50.042;8.436;2022-11-12T10:25:18;102174.38;;;6.76;100.00
32109;BME280;18624;50.042;8.436;2022-11-12T10:28:15;102179.84;;;6.76;100.00
32109;BME280;18624;50.042;8.436;2022-11-12T10:31:12;102179.75;;;6.73;100.00
32109;BME280;18624;50.042;8.436;2022-11-12T10:34:10;102183.69;;;6.75;100.00
32109;BME280;18624;50.042;8.436;2022-11-12T10:37:26;102180.91;;;6.72;100.00
32109;BME280;18624;50.042;8.436;2022-11-12T10:40:29;102153.72;;;6.56;100.00
32109;BME280;18624;50.042;8.436;2022-11-12T10:46:16;102182.56;;;6.76;100.00
32109;BME280;18624;50.042;8.436;2022-11-12T10:49:22;102169.16;;;6.68;100.00
32109;BME280;18624;50.042;8.436;2022-11-12T10:52:20;102178.47;;;6.86;100.00
32109;BME280;18624;50.042;8.436;2022-11-12T10:55:21;102177.03;;;6.92;100.00
32109;BME280;18624;50.042;8.436;2022-11-12T11:01:00;102154.31;;;6.84;100.00
32109;BME280;18624;50.042;8.436;2022-11-12T11:03:51;102176.88;;;7.04;100.00
32109;BME280;18624;50.042;8.436;2022-11-12T11:06:37;102128.28;;;6.68;100.00
32109;BME280;18624;50.042;8.436;2022-11-12T11:09:24;102171.34;;;7.01;100.00
32109;BME280;18624;50.042;8.436;2022-11-12T11:12:30;102162.75;;;6.99;100.00
32109;BME280;18624;50.042;8.436;2022-11-12T11:15:22;102166.34;;;7.03;100.00
32109;BME280;18624;50.042;8.436;2022-11-12T11:18:10;102165.97;;;7.04;100.00
32109;BME280;18624;50.042;8.436;2022-11-12T11:21:34;102158.97;;;7.03;100.00
32109;BME280;18624;50.042;8.436;2022-11-12T11:24:59;102162.03;;;7.02;100.00
32109;BME280;18624;50.042;8.436;2022-11-12T11:30:51;102158.81;;;6.96;100.00
32109;BME280;18624;50.042;8.436;2022-11-12T11:33:47;102157.72;;;7.01;100.00
32109;BME280;18624;50.042;8.436;2022-11-12T11:36:55;102146.53;;;7.06;100.00
32109;BME280;18624;50.042;8.436;2022-11-12T11:40:00;102140.72;;;7.07;100.00
32109;BME280;18624;50.042;8.436;2022-11-12T11:43:03;102139.09;;;7.03;100.00
32109;BME280;18624;50.042;8.436;2022-11-12T11:48:58;102131.91;;;6.95;100.00
32109;BME280;18624;50.042;8.436;2022-11-12T11:55:16;102140.09;;;6.95;100.00
32109;BME280;18624;50.042;8.436;2022-11-12T11:58:30;102138.38;;;6.87;100.00
32109;BME280;18624;50.042;8.436;2022-11-12T12:01:52;102134.56;;;6.91;100.00
32109;BME280;18624;50.042;8.436;2022-11-12T12:07:56;102134.41;;;7.03;100.00
32109;BME280;18624;50.042;8.436;2022-11-12T12:10:51;102083.31;;;6.77;100.00
32109;BME280;18624;50.042;8.436;2022-11-12T12:14:14;102128.78;;;7.16;100.00
32109;BME280;18624;50.042;8.436;2022-11-12T12:20:34;102132.81;;;7.22;100.00
32109;BME280;18624;50.042;8.436;2022-11-12T12:23:34;102125.88;;;7.28;100.00
32109;BME280;18624;50.042;8.436;2022-11-12T12:26:30;102123.38;;;7.19;100.00
32109;BME280;18624;50.042;8.436;2022-11-12T12:29:32;102114.06;;;7.20;100.00
32109;BME280;18624;50.042;8.436;2022-11-12T12:32:37;102108.59;;;7.20;100.00
32109;BME280;18624;50.042;8.436;2022-11-12T12:35:35;102106.69;;;7.21;100.00
32109;BME280;18624;50.042;8.436;2022-11-12T12:38:36;102102.50;;;7.27;100.00
32109;BME280;18624;50.042;8.436;2022-11-12T12:41:26;102101.72;;;7.26;100.00
32109;BME280;18624;50.042;8.436;2022-11-12T12:44:13;102103.28;;;7.27;100.00
32109;BME280;18624;50.042;8.436;2022-11-12T12:47:02;102095.50;;;7.29;100.00
32109;BME280;18624;50.042;8.436;2022-11-12T12:49:49;102091.53;;;7.23;100.00
32109;BME280;18624;50.042;8.436;2022-11-12T12:53:01;102088.47;;;7.28;100.00
32109;BME280;18624;50.042;8.436;2022-11-12T12:55:52;102090.44;;;7.28;100.00
32109;BME280;18624;50.042;8.436;2022-11-12T12:58:43;102089.34;;;7.32;100.00
32109;BME280;18624;50.042;8.436;2022-11-12T13:01:34;102022.66;;;6.84;100.00
32109;BME280;18624;50.042;8.436;2022-11-12T13:04:49;102084.25;;;7.31;100.00
32109;BME280;18624;50.042;8.436;2022-11-12T13:07:42;102083.94;;;7.36;100.00
32109;BME280;18624;50.042;8.436;2022-11-12T13:13:31;102066.72;;;7.32;100.00
32109;BME280;18624;50.042;8.436;2022-11-12T13:25:30;102060.56;;;7.35;100.00
32109;BME280;18624;50.042;8.436;2022-11-12T13:28:17;102057.13;;;7.42;100.00
32109;BME280;18624;50.042;8.436;2022-11-12T13:31:03;102020.50;;;7.16;100.00
32109;BME280;18624;50.042;8.436;2022-11-12T13:34:32;102049.06;;;7.49;100.00
32109;BME280;18624;50.042;8.436;2022-11-12T13:37:19;102056.88;;;7.50;100.00
32109;BME280;18624;50.042;8.436;2022-11-12T13:40:09;102054.59;;;7.52;100.00
32109;BME280;18624;50.042;8.436;2022-11-12T13:46:18;102044.94;;;7.58;100.00
32109;BME280;18624;50.042;8.436;2022-11-12T13:49:13;102047.97;;;7.53;100.00
32109;BME280;18624;50.042;8.436;2022-11-12T13:51:59;101973.19;;;7.05;100.00
32109;BME280;18624;50.042;8.436;2022-11-12T13:54:44;102045.56;;;7.48;100.00
32109;BME280;18624;50.042;8.436;2022-11-12T13:57:30;102040.88;;;7.49;100.00
32109;BME280;18624;50.042;8.436;2022-11-12T14:00:28;102040.09;;;7.48;100.00
32109;BME280;18624;50.042;8.436;2022-11-12T14:03:16;102040.44;;;7.47;100.00
32109;BME280;18624;50.042;8.436;2022-11-12T14:06:13;102037.31;;;7.45;100.00
32109;BME280;18624;50.042;8.436;2022-11-12T14:09:26;102032.28;;;7.47;100.00
32109;BME280;18624;50.042;8.436;2022-11-12T14:12:24;102030.31;;;7.47;100.00
32109;BME280;18624;50.042;8.436;2022-11-12T14:18:38;102023.41;;;7.53;100.00
32109;BME280;18624;50.042;8.436;2022-11-12T14:21:26;102022.63;;;7.53;100.00
32109;BME280;18624;50.042;8.436;2022-11-12T14:24:12;101925.47;;;6.92;100.00
32109;BME280;18624;50.042;8.436;2022-11-12T14:26:57;102013.66;;;7.52;100.00
32109;BME280;18624;50.042;8.436;2022-11-12T14:29:42;102014.06;;;7.54;100.00
32109;BME280;18624;50.042;8.436;2022-11-12T14:32:34;102016.84;;;7.58;100.00
32109;BME280;18624;50.042;8.436;2022-11-12T14:35:35;102012.97;;;7.59;100.00
32109;BME280;18624;50.042;8.436;2022-11-12T14:38:42;102008.72;;;7.61;100.00
32109;BME280;18624;50.042;8.436;2022-11-12T14:41:33;102013.81;;;7.63;100.00
32109;BME280;18624;50.042;8.436;2022-11-12T14:44:32;102012.25;;;7.62;100.00
32109;BME280;18624;50.042;8.436;2022-11-12T14:47:18;102006.00;;;7.61;100.00
32109;BME280;18624;50.042;8.436;2022-11-12T14:50:04;101945.72;;;7.17;100.00
32109;BME280;18624;50.042;8.436;2022-11-12T14:52:58;102015.31;;;7.60;100.00
32109;BME280;18624;50.042;8.436;2022-11-12T14:55:48;102018.03;;;7.60;100.00
32109;BME280;18624;50.042;8.436;2022-11-12T14:58:37;102000.38;;;7.51;100.00
32109;BME280;18624;50.042;8.436;2022-11-12T15:01:29;101882.41;;;6.78;100.00
32109;BME280;18624;50.042;8.436;2022-11-12T15:04:37;102006.34;;;7.60;100.00
32109;BME280;18624;50.042;8.436;2022-11-12T15:10:42;102001.25;;;7.58;100.00
32109;BME280;18624;50.042;8.436;2022-11-12T15:13:36;102001.31;;;7.62;100.00
32109;BME280;18624;50.042;8.436;2022-11-12T15:16:25;101998.59;;;7.62;100.00
32109;BME280;18624;50.042;8.436;2022-11-12T15:19:17;102007.56;;;7.63;100.00
32109;BME280;18624;50.042;8.436;2022-11-12T15:22:05;101999.75;;;7.61;100.00
32109;BME280;18624;50.042;8.436;2022-11-12T15:24:50;101994.31;;;7.61;100.00
32109;BME280;18624;50.042;8.436;2022-11-12T15:27:40;101993.53;;;7.64;100.00
32109;BME280;18624;50.042;8.436;2022-11-12T15:30:28;101966.94;;;7.57;100.00
32109;BME280;18624;50.042;8.436;2022-11-12T15:33:20;101984.19;;;7.65;100.00
32109;BME280;18624;50.042;8.436;2022-11-12T15:36:20;101986.13;;;7.61;100.00
32109;BME280;18624;50.042;8.436;2022-11-12T15:39:11;101973.59;;;7.60;100.00
32109;BME280;18624;50.042;8.436;2022-11-12T15:42:11;101929.75;;;7.19;100.00
32109;BME280;18624;50.042;8.436;2022-11-12T15:45:00;101973.97;;;7.58;100.00
32109;BME280;18624;50.042;8.436;2022-11-12T15:47:46;101918.00;;;7.15;100.00
32109;BME280;18624;50.042;8.436;2022-11-12T15:50:31;101975.81;;;7.51;100.00